createdAt,value
2023-03-10T00:00:31.228Z,87.18
2023-03-10T00:03:22.194Z,87.54
2023-03-10T00:06:09.785Z,88.45
2023-03-10T00:08:55.788Z,88.44
2023-03-10T00:11:41.431Z,89.04
2023-03-10T00:14:26.688Z,89.77
2023-03-10T00:17:11.571Z,90.03
2023-03-10T00:19:56.907Z,90.28
2023-03-10T00:22:42.082Z,90.60
2023-03-10T00:25:27.213Z,91.17
2023-03-10T00:28:12.444Z,91.02
2023-03-10T00:31:03.664Z,91.08
2023-03-10T00:33:49.648Z,91.03
2023-03-10T00:36:34.636Z,90.81
2023-03-10T00:39:20.586Z,90.86
2023-03-10T00:42:06.354Z,91.18
2023-03-10T00:44:51.692Z,91.27
2023-03-10T00:47:36.760Z,91.75
2023-03-10T00:50:23.029Z,91.78
2023-03-10T00:53:08.089Z,92.04
2023-03-10T00:55:58.794Z,91.76
2023-03-10T00:58:45.318Z,91.90
2023-03-10T01:01:36.889Z,92.55
2023-03-10T01:04:21.908Z,92.80
2023-03-10T01:07:07.032Z,92.70
2023-03-10T01:09:52.229Z,92.20
2023-03-10T01:12:37.072Z,92.55
2023-03-10T01:15:23.591Z,93.17
2023-03-10T01:18:08.686Z,93.35
2023-03-10T01:20:53.959Z,93.66
2023-03-10T01:23:39.057Z,93.63
2023-03-10T01:26:24.331Z,93.91
2023-03-10T01:29:09.276Z,94.18
2023-03-10T01:31:54.359Z,94.50
2023-03-10T01:34:39.586Z,94.69
2023-03-10T01:37:24.878Z,95.20
2023-03-10T01:40:15.635Z,96.00
2023-03-10T01:43:19.061Z,96.23
2023-03-10T01:46:04.217Z,96.69
2023-03-10T01:48:49.447Z,97.00
2023-03-10T01:51:36.848Z,97.22
2023-03-10T01:54:31.700Z,97.29
2023-03-10T01:57:22.714Z,97.76
2023-03-10T02:00:11.746Z,98.28
2023-03-10T02:03:19.912Z,98.81
2023-03-10T02:06:11.315Z,99.04
2023-03-10T02:08:59.355Z,99.16
2023-03-10T02:11:46.659Z,99.32
2023-03-10T02:14:35.062Z,99.56
2023-03-10T02:17:23.543Z,99.60
2023-03-10T02:20:19.740Z,99.98
2023-03-10T02:23:04.859Z,100.00
2023-03-10T02:26:04.599Z,100.00
2023-03-10T02:28:52.056Z,100.00
2023-03-10T02:31:37.527Z,100.00
2023-03-10T02:34:25.593Z,100.00
2023-03-10T02:37:23.111Z,100.00
2023-03-10T02:40:33.166Z,100.00
2023-03-10T02:43:21.822Z,100.00
2023-03-10T02:46:07.992Z,100.00
2023-03-10T02:48:53.909Z,100.00
2023-03-10T02:51:41.972Z,100.00
2023-03-10T02:54:27.847Z,100.00
2023-03-10T02:57:13.029Z,100.00
2023-03-10T02:59:58.178Z,100.00
2023-03-10T03:02:43.088Z,100.00
2023-03-10T03:05:28.434Z,100.00
2023-03-10T03:08:13.811Z,100.00
2023-03-10T03:10:59.711Z,100.00
2023-03-10T03:13:45.029Z,100.00
2023-03-10T03:16:30.316Z,100.00
2023-03-10T03:19:15.664Z,100.00
2023-03-10T03:22:00.956Z,100.00
2023-03-10T03:24:46.082Z,100.00
2023-03-10T03:27:31.280Z,100.00
2023-03-10T03:30:22.897Z,100.00
2023-03-10T03:33:08.425Z,100.00
2023-03-10T03:35:53.758Z,100.00
2023-03-10T03:38:38.927Z,100.00
2023-03-10T03:41:24.063Z,100.00
2023-03-10T03:44:09.445Z,100.00
2023-03-10T03:46:54.810Z,100.00
2023-03-10T03:49:40.158Z,100.00
2023-03-10T03:52:25.365Z,100.00
2023-03-10T03:55:12.786Z,100.00
2023-03-10T03:57:58.084Z,100.00
2023-03-10T04:00:43.243Z,100.00
2023-03-10T04:03:28.251Z,100.00
2023-03-10T04:06:13.471Z,100.00
2023-03-10T04:08:58.391Z,100.00
2023-03-10T04:11:43.711Z,100.00
2023-03-10T04:14:28.874Z,100.00
2023-03-10T04:17:14.160Z,100.00
2023-03-10T04:20:07.069Z,100.00
2023-03-10T04:22:52.707Z,100.00
2023-03-10T04:25:40.865Z,100.00
2023-03-10T04:28:25.738Z,100.00
2023-03-10T04:31:17.119Z,100.00
2023-03-10T04:34:02.609Z,100.00
2023-03-10T04:36:47.640Z,100.00
2023-03-10T04:39:35.072Z,100.00
2023-03-10T04:42:20.540Z,100.00
2023-03-10T04:45:06.378Z,100.00
2023-03-10T04:47:51.835Z,100.00
2023-03-10T04:50:36.905Z,100.00
2023-03-10T04:53:40.710Z,100.00
2023-03-10T04:56:27.597Z,100.00
2023-03-10T04:59:14.130Z,100.00
2023-03-10T05:02:01.082Z,100.00
2023-03-10T05:04:48.085Z,100.00
2023-03-10T05:07:34.859Z,100.00
2023-03-10T05:10:21.422Z,100.00
2023-03-10T05:13:12.271Z,100.00
2023-03-10T05:15:58.872Z,100.00
2023-03-10T05:18:46.886Z,100.00
2023-03-10T05:21:36.043Z,100.00
2023-03-10T05:24:22.484Z,100.00
2023-03-10T05:27:10.548Z,100.00
2023-03-10T05:29:57.405Z,100.00
2023-03-10T05:32:44.882Z,100.00
2023-03-10T05:35:31.494Z,100.00
2023-03-10T05:38:19.448Z,100.00
2023-03-10T05:41:11.626Z,100.00
2023-03-10T05:43:58.759Z,100.00
2023-03-10T05:46:45.291Z,100.00
2023-03-10T05:49:32.790Z,100.00
2023-03-10T05:52:19.023Z,100.00
2023-03-10T05:55:07.390Z,100.00
2023-03-10T05:57:53.933Z,100.00
2023-03-10T06:00:40.278Z,100.00
2023-03-10T06:03:28.926Z,100.00
2023-03-10T06:06:22.368Z,100.00
2023-03-10T06:09:08.925Z,100.00
2023-03-10T06:11:56.341Z,100.00
2023-03-10T06:14:42.846Z,100.00
2023-03-10T06:17:29.927Z,100.00
2023-03-10T06:20:16.592Z,100.00
2023-03-10T06:23:03.149Z,100.00
2023-03-10T06:26:06.086Z,100.00
2023-03-10T06:28:52.758Z,100.00
2023-03-10T06:31:40.775Z,100.00
2023-03-10T06:34:27.144Z,100.00
2023-03-10T06:37:13.516Z,100.00
2023-03-10T06:40:00.551Z,100.00
2023-03-10T06:42:46.825Z,100.00
2023-03-10T06:45:33.208Z,100.00
2023-03-10T06:48:20.137Z,100.00
2023-03-10T06:51:09.142Z,100.00
2023-03-10T06:53:57.579Z,100.00
2023-03-10T06:56:44.176Z,100.00
2023-03-10T06:59:33.176Z,100.00
2023-03-10T07:02:19.922Z,100.00
2023-03-10T07:11:40.519Z,100.00
2023-03-10T07:14:26.936Z,100.00
2023-03-10T07:17:13.534Z,100.00
2023-03-10T07:20:00.180Z,100.00
2023-03-10T07:22:46.987Z,100.00
2023-03-10T07:25:37.620Z,100.00
2023-03-10T07:28:25.757Z,100.00
2023-03-10T07:31:14.161Z,100.00
2023-03-10T07:34:02.118Z,100.00
2023-03-10T07:36:48.621Z,100.00
2023-03-10T07:39:35.205Z,100.00
2023-03-10T07:42:21.707Z,100.00
2023-03-10T07:45:09.624Z,100.00
2023-03-10T07:48:00.206Z,99.94
2023-03-10T07:50:58.501Z,99.99
2023-03-10T07:53:45.283Z,99.94
2023-03-10T07:56:31.987Z,99.44
2023-03-10T07:59:18.997Z,98.64
2023-03-10T08:02:05.771Z,98.47
2023-03-10T08:04:52.635Z,98.15
2023-03-10T08:07:39.249Z,98.39
2023-03-10T08:10:26.906Z,98.12
2023-03-10T08:13:14.686Z,97.77
2023-03-10T08:16:02.789Z,97.92
2023-03-10T08:18:52.320Z,97.73
2023-03-10T08:21:39.043Z,97.78
2023-03-10T08:24:27.374Z,97.85
2023-03-10T08:27:13.830Z,97.96
2023-03-10T08:30:00.668Z,98.31
2023-03-10T08:32:47.415Z,99.19
2023-03-10T08:35:38.334Z,99.37
2023-03-10T08:38:25.478Z,99.79
2023-03-10T08:41:17.151Z,99.99
2023-03-10T08:44:05.292Z,100.00
2023-03-10T08:46:52.199Z,100.00
2023-03-10T08:49:38.481Z,100.00
2023-03-10T08:52:25.195Z,100.00
2023-03-10T08:55:11.933Z,100.00
2023-03-10T08:58:00.308Z,100.00
2023-03-10T09:00:46.724Z,100.00
2023-03-10T09:03:37.599Z,100.00
2023-03-10T09:06:25.166Z,100.00
2023-03-10T09:09:12.604Z,100.00
2023-03-10T09:11:59.429Z,100.00
2023-03-10T09:14:48.156Z,100.00
2023-03-10T09:17:34.379Z,100.00
2023-03-10T09:20:28.902Z,100.00
2023-03-10T09:23:16.636Z,100.00
2023-03-10T09:26:03.457Z,100.00
2023-03-10T09:28:51.110Z,100.00
2023-03-10T09:31:39.615Z,100.00
2023-03-10T09:34:30.093Z,100.00
2023-03-10T09:37:16.955Z,100.00
2023-03-10T09:40:06.438Z,100.00
2023-03-10T09:42:56.029Z,100.00
2023-03-10T09:45:46.166Z,100.00
2023-03-10T09:48:51.736Z,100.00
2023-03-10T09:51:44.920Z,100.00
2023-03-10T09:54:54.534Z,100.00
2023-03-10T09:57:41.998Z,100.00
2023-03-10T10:00:37.081Z,100.00
2023-03-10T10:03:46.390Z,100.00
2023-03-10T10:06:43.052Z,100.00
2023-03-10T10:10:06.310Z,100.00
2023-03-10T10:12:54.757Z,100.00
2023-03-10T10:15:48.100Z,100.00
2023-03-10T10:18:48.716Z,100.00
2023-03-10T10:21:43.315Z,100.00
2023-03-10T10:24:30.865Z,100.00
2023-03-10T10:27:18.737Z,100.00
2023-03-10T10:30:31.367Z,100.00
2023-03-10T10:33:18.215Z,100.00
2023-03-10T10:36:06.021Z,100.00
2023-03-10T10:38:57.913Z,100.00
2023-03-10T10:41:44.659Z,100.00
2023-03-10T10:44:40.939Z,100.00
2023-03-10T10:47:47.834Z,100.00
2023-03-10T10:50:36.153Z,100.00
2023-03-10T10:53:26.190Z,100.00
2023-03-10T10:56:20.276Z,100.00
2023-03-10T10:59:28.592Z,100.00
2023-03-10T11:02:32.915Z,99.96
2023-03-10T11:05:23.960Z,98.25
2023-03-10T11:08:27.103Z,97.91
2023-03-10T11:11:48.146Z,97.62
2023-03-10T11:14:57.653Z,98.27
2023-03-10T11:17:57.480Z,98.60
2023-03-10T11:20:56.411Z,99.03
2023-03-10T11:24:01.292Z,99.09
2023-03-10T11:27:41.821Z,99.33
2023-03-10T11:30:35.646Z,98.48
2023-03-10T11:33:38.738Z,98.27
2023-03-10T11:36:56.589Z,98.09
2023-03-10T11:40:42.074Z,97.04
2023-03-10T11:43:47.674Z,95.38
2023-03-10T11:46:44.540Z,95.38
2023-03-10T11:49:39.272Z,95.04
2023-03-10T11:52:30.956Z,94.87
2023-03-10T11:55:22.676Z,94.61
2023-03-10T11:58:24.336Z,93.60
2023-03-10T12:01:18.096Z,91.88
2023-03-10T12:04:17.209Z,91.13
2023-03-10T12:07:24.783Z,91.07
2023-03-10T12:10:15.334Z,88.45
2023-03-10T12:13:05.705Z,83.76
2023-03-10T12:15:59.771Z,80.86
2023-03-10T12:18:47.205Z,78.64
2023-03-10T12:21:36.417Z,79.96
2023-03-10T12:24:47.525Z,81.28
2023-03-10T12:28:11.776Z,82.26
2023-03-10T12:31:10.709Z,83.43
2023-03-10T12:34:29.254Z,83.05
2023-03-10T12:37:22.762Z,84.11
2023-03-10T12:40:51.555Z,84.43
2023-03-10T12:44:25.758Z,83.61
2023-03-10T12:47:34.106Z,83.01
2023-03-10T12:50:24.088Z,83.22
2023-03-10T12:53:36.027Z,82.07
2023-03-10T12:56:40.174Z,81.67
2023-03-10T12:59:37.034Z,79.78
2023-03-10T13:02:34.068Z,78.16
2023-03-10T13:05:26.052Z,77.54
2023-03-10T13:08:22.613Z,77.21
2023-03-10T13:11:48.662Z,75.40
2023-03-10T13:14:40.974Z,73.98
2023-03-10T13:17:30.558Z,71.99
2023-03-10T13:20:19.413Z,69.63
2023-03-10T13:23:06.140Z,67.26
2023-03-10T13:25:58.595Z,68.54
2023-03-10T13:28:55.845Z,67.76
2023-03-10T13:31:52.670Z,69.27
2023-03-10T13:34:39.170Z,69.89
2023-03-10T13:37:26.462Z,70.16
2023-03-10T13:40:16.668Z,70.07
2023-03-10T13:43:05.796Z,70.60
2023-03-10T13:46:00.394Z,70.77
2023-03-10T13:48:49.659Z,71.28
2023-03-10T13:51:37.641Z,71.51
2023-03-10T13:54:37.727Z,71.19
2023-03-10T13:57:32.994Z,70.71
2023-03-10T14:00:24.844Z,71.29
2023-03-10T14:03:15.202Z,71.70
2023-03-10T14:06:15.452Z,71.40
2023-03-10T14:09:23.026Z,71.01
2023-03-10T14:12:12.635Z,71.20
2023-03-10T14:15:21.278Z,71.29
2023-03-10T14:18:08.131Z,70.26
2023-03-10T14:20:54.880Z,70.26
2023-03-10T14:23:43.701Z,70.14
2023-03-10T14:26:30.813Z,69.78
2023-03-10T14:29:17.876Z,69.42
2023-03-10T14:32:08.980Z,69.20
2023-03-10T14:34:56.094Z,69.26
2023-03-10T14:37:43.801Z,69.29
2023-03-10T14:40:39.901Z,68.92
2023-03-10T14:43:29.430Z,68.76
2023-03-10T14:46:16.908Z,68.57
2023-03-10T14:49:15.143Z,68.11
2023-03-10T14:52:05.972Z,66.10
2023-03-10T14:54:52.525Z,66.10
2023-03-10T14:57:40.597Z,66.16
2023-03-10T15:00:27.584Z,66.58
2023-03-10T15:03:14.329Z,66.90
2023-03-10T15:06:06.565Z,67.55
2023-03-10T15:08:53.860Z,67.63
2023-03-10T15:11:41.681Z,67.36
2023-03-10T15:14:28.436Z,67.67
2023-03-10T15:17:15.190Z,68.00
2023-03-10T15:20:08.426Z,67.84
2023-03-10T15:22:55.378Z,68.15
2023-03-10T15:25:43.689Z,68.09
2023-03-10T15:28:32.446Z,68.33
2023-03-10T15:31:19.468Z,68.62
2023-03-10T15:34:07.337Z,69.29
2023-03-10T15:36:53.960Z,69.16
2023-03-10T15:39:41.813Z,69.09
2023-03-10T15:42:28.945Z,69.31
2023-03-10T15:45:21.588Z,69.81
2023-03-10T15:48:10.389Z,70.15
2023-03-10T15:50:59.512Z,70.09
2023-03-10T15:53:46.499Z,70.17
2023-03-10T15:56:38.418Z,70.30
2023-03-10T15:59:30.475Z,70.45
2023-03-10T16:02:17.555Z,70.40
2023-03-10T16:05:06.131Z,70.57
2023-03-10T16:07:55.959Z,71.34
2023-03-10T16:10:52.091Z,72.03
2023-03-10T16:13:38.365Z,72.23
2023-03-10T16:16:26.510Z,72.19
2023-03-10T16:19:13.295Z,72.97
2023-03-10T16:22:00.191Z,73.64
2023-03-10T16:24:46.676Z,74.38
2023-03-10T16:27:34.961Z,75.30
2023-03-10T16:30:23.897Z,76.00
2023-03-10T16:33:10.476Z,76.26
2023-03-10T16:36:02.105Z,76.66
2023-03-10T16:38:50.074Z,77.17
2023-03-10T16:41:36.671Z,77.57
2023-03-10T16:44:23.285Z,78.32
2023-03-10T16:47:09.703Z,78.92
2023-03-10T16:49:56.588Z,79.40
2023-03-10T16:52:43.130Z,79.71
2023-03-10T16:55:29.885Z,80.44
2023-03-10T16:58:16.710Z,80.50
2023-03-10T17:01:04.885Z,80.74
2023-03-10T17:03:53.384Z,81.36
2023-03-10T17:06:40.299Z,81.59
2023-03-10T17:09:27.130Z,82.03
2023-03-10T17:12:13.570Z,82.64
2023-03-10T17:15:00.739Z,82.63
2023-03-10T17:17:47.464Z,82.76
2023-03-10T17:20:39.258Z,83.27
2023-03-10T17:23:26.354Z,83.37
2023-03-10T17:26:13.944Z,83.22
2023-03-10T17:29:00.940Z,83.51
2023-03-10T17:31:51.888Z,83.87
2023-03-10T17:34:42.059Z,84.16
2023-03-10T17:37:31.276Z,84.43
2023-03-10T17:40:21.636Z,84.84
2023-03-10T17:43:23.402Z,84.94
2023-03-10T17:46:27.584Z,85.00
2023-03-10T17:49:18.222Z,85.22
2023-03-10T17:52:05.759Z,85.63
2023-03-10T17:54:54.606Z,86.09
2023-03-10T17:57:43.522Z,86.45
2023-03-10T18:00:30.381Z,86.98
2023-03-10T18:03:17.711Z,87.16
2023-03-10T18:06:35.258Z,87.01
2023-03-10T18:09:23.025Z,86.76
2023-03-10T18:12:10.791Z,86.51
2023-03-10T18:14:57.269Z,86.62
2023-03-10T18:17:43.968Z,86.93
2023-03-10T18:20:30.762Z,87.55
2023-03-10T18:23:17.721Z,88.19
2023-03-10T18:26:13.712Z,88.99
2023-03-10T18:29:00.873Z,89.19
2023-03-10T18:31:54.052Z,89.13
2023-03-10T18:34:41.671Z,89.74
2023-03-10T18:37:34.482Z,89.86
2023-03-10T18:40:21.043Z,89.87
2023-03-10T18:43:09.110Z,89.71
2023-03-10T18:45:56.584Z,89.54
2023-03-10T18:48:42.912Z,89.65
2023-03-10T18:51:30.957Z,89.70
2023-03-10T18:54:17.898Z,89.83
2023-03-10T18:57:04.811Z,89.97
2023-03-10T18:59:51.997Z,89.89
2023-03-10T19:02:41.391Z,90.37
2023-03-10T19:05:28.883Z,90.71
2023-03-10T19:08:15.644Z,90.49
2023-03-10T19:11:02.635Z,90.15
2023-03-10T19:13:52.783Z,90.28
2023-03-10T19:16:40.286Z,89.90
2023-03-10T19:19:51.967Z,89.73
2023-03-10T19:22:42.163Z,90.25
2023-03-10T19:25:29.001Z,90.33
2023-03-10T19:28:16.310Z,90.23
2023-03-10T19:31:11.176Z,90.37
2023-03-10T19:33:58.159Z,90.09
2023-03-10T19:36:49.959Z,90.01
2023-03-10T19:39:47.236Z,90.03
2023-03-10T19:42:41.645Z,89.95
2023-03-10T19:45:35.854Z,89.87
2023-03-10T19:48:24.110Z,89.48
2023-03-10T19:51:24.088Z,89.38
2023-03-10T19:54:11.877Z,89.75
2023-03-10T19:56:58.957Z,89.96
2023-03-10T19:59:46.470Z,90.21
2023-03-10T20:02:33.179Z,90.35
2023-03-10T20:05:21.297Z,90.10
2023-03-10T20:08:08.764Z,89.70
2023-03-10T20:11:01.740Z,89.03
2023-03-10T20:13:48.616Z,88.10
2023-03-10T20:16:35.033Z,87.62
2023-03-10T20:19:32.566Z,87.24
2023-03-10T20:22:19.959Z,87.38
2023-03-10T20:25:27.824Z,87.70
2023-03-10T20:28:16.635Z,88.11
2023-03-10T20:31:03.999Z,87.84
2023-03-10T20:35:48.654Z,87.60
2023-03-10T20:38:38.483Z,88.04
2023-03-10T20:41:23.936Z,87.66
2023-03-10T20:44:19.830Z,87.66
2023-03-10T20:47:05.632Z,87.56
2023-03-10T20:49:52.140Z,88.12
2023-03-10T20:52:41.496Z,88.02
2023-03-10T20:55:29.509Z,88.04
2023-03-10T20:58:16.865Z,87.75
2023-03-10T21:01:03.159Z,87.35
2023-03-10T21:03:48.630Z,87.37
2023-03-10T21:06:35.233Z,86.99
2023-03-10T21:09:20.518Z,87.06
2023-03-10T21:12:06.069Z,87.12
2023-03-10T21:14:51.200Z,87.03
2023-03-10T21:17:36.780Z,87.40
2023-03-10T21:20:23.192Z,87.42
2023-03-10T21:23:08.448Z,87.76
2023-03-10T21:25:54.028Z,88.16
2023-03-10T21:28:40.720Z,88.69
2023-03-10T21:31:28.004Z,89.02
2023-03-10T21:34:13.962Z,89.48
2023-03-10T21:36:59.667Z,89.80
2023-03-10T21:39:44.910Z,89.83
2023-03-10T21:42:29.726Z,89.55
2023-03-10T21:45:20.076Z,89.94
2023-03-10T21:48:06.052Z,89.72
2023-03-10T21:50:51.335Z,89.58
2023-03-10T21:53:36.905Z,89.76
2023-03-10T21:56:25.362Z,89.97
2023-03-10T21:59:12.300Z,90.05
2023-03-10T22:01:57.740Z,90.10
2023-03-10T22:04:43.483Z,90.16
2023-03-10T22:07:28.805Z,90.44
2023-03-10T22:10:15.068Z,90.56
2023-03-10T22:13:01.928Z,90.50
2023-03-10T22:15:47.245Z,90.73
2023-03-10T22:18:33.517Z,90.80
2023-03-10T22:21:21.504Z,90.81
2023-03-10T22:24:06.947Z,91.21
2023-03-10T22:26:53.343Z,91.28
2023-03-10T22:29:39.216Z,91.47
2023-03-10T22:32:25.322Z,91.85
2023-03-10T22:35:12.597Z,92.41
2023-03-10T22:37:59.151Z,92.52
2023-03-10T22:40:44.290Z,92.64
2023-03-10T22:43:29.334Z,93.16
2023-03-10T22:46:16.433Z,93.44
2023-03-10T22:49:01.559Z,93.77
2023-03-10T22:51:46.901Z,93.73
2023-03-10T22:54:32.904Z,93.99
2023-03-10T22:57:17.790Z,94.18
2023-03-10T23:00:04.778Z,93.98
2023-03-10T23:02:51.436Z,93.88
2023-03-10T23:05:37.539Z,93.95
2023-03-10T23:08:22.689Z,93.72
2023-03-10T23:11:14.764Z,93.98
2023-03-10T23:14:03.443Z,94.62
2023-03-10T23:16:48.410Z,95.09
2023-03-10T23:19:35.210Z,94.86
2023-03-10T23:22:25.424Z,94.88
2023-03-10T23:25:41.730Z,94.77
2023-03-10T23:28:26.916Z,95.17
2023-03-10T23:31:16.439Z,94.86
2023-03-10T23:34:03.184Z,94.72
2023-03-10T23:36:48.418Z,95.12
2023-03-10T23:39:33.764Z,94.91
2023-03-10T23:42:19.282Z,94.60
2023-03-10T23:45:06.367Z,94.82
2023-03-10T23:47:52.210Z,94.78
2023-03-10T23:50:41.277Z,95.05
2023-03-10T23:53:28.254Z,95.10
2023-03-10T23:56:13.649Z,95.03
2023-03-10T23:58:58.912Z,94.87
